sensor_id;sensor_type;location;lat;lon;timestamp;pressure;altitude;pressure_sealevel;temperature;humidity
63946;BME280;50122;56.330;43.838;2023-06-22T00:01:21;101059.38;;;6.11;78.22
63946;BME280;50122;56.330;43.838;2023-06-22T00:03:52;101062.06;;;6.07;78.62
63946;BME280;50122;56.330;43.838;2023-06-22T00:06:19;101062.09;;;6.04;78.74
63946;BME280;50122;56.330;43.838;2023-06-22T00:08:45;101063.91;;;5.99;78.88
63946;BME280;50122;56.330;43.838;2023-06-22T00:11:12;101063.06;;;5.96;79.00
63946;BME280;50122;56.330;43.838;2023-06-22T00:13:39;101064.81;;;5.94;79.05
63946;BME280;50122;56.330;43.838;2023-06-22T00:16:06;101070.94;;;5.96;79.08
63946;BME280;50122;56.330;43.838;2023-06-22T00:18:34;101066.53;;;5.99;79.56
63946;BME280;50122;56.330;43.838;2023-06-22T00:21:06;101066.50;;;6.01;79.63
63946;BME280;50122;56.330;43.838;2023-06-22T00:23:33;101060.41;;;5.99;79.58
63946;BME280;50122;56.330;43.838;2023-06-22T00:26:01;101058.66;;;6.02;79.85
63946;BME280;50122;56.330;43.838;2023-06-22T00:28:27;101056.00;;;6.04;79.83
63946;BME280;50122;56.330;43.838;2023-06-22T00:30:55;101050.78;;;5.99;80.22
63946;BME280;50122;56.330;43.838;2023-06-22T00:33:23;101063.00;;;6.02;79.98
63946;BME280;50122;56.330;43.838;2023-06-22T00:35:49;101066.47;;;6.05;80.28
63946;BME280;50122;56.330;43.838;2023-06-22T00:38:19;101064.69;;;6.07;80.43
63946;BME280;50122;56.330;43.838;2023-06-22T00:40:48;101062.03;;;6.09;80.33
63946;BME280;50122;56.330;43.838;2023-06-22T00:43:15;101062.94;;;6.10;80.39
63946;BME280;50122;56.330;43.838;2023-06-22T00:45:41;101067.25;;;6.12;80.31
63946;BME280;50122;56.330;43.838;2023-06-22T00:48:11;101068.19;;;6.10;79.97
63946;BME280;50122;56.330;43.838;2023-06-22T00:50:42;101066.38;;;6.12;80.19
63946;BME280;50122;56.330;43.838;2023-06-22T00:53:09;101070.75;;;6.13;80.30
63946;BME280;50122;56.330;43.838;2023-06-22T00:55:38;101073.34;;;6.14;80.53
63946;BME280;50122;56.330;43.838;2023-06-22T00:58:09;101072.44;;;6.15;80.15
63946;BME280;50122;56.330;43.838;2023-06-22T01:00:38;101064.56;;;6.15;80.07
63946;BME280;50122;56.330;43.838;2023-06-22T01:03:06;101076.78;;;6.18;79.73
63946;BME280;50122;56.330;43.838;2023-06-22T01:05:37;101075.06;;;6.18;79.94
63946;BME280;50122;56.330;43.838;2023-06-22T01:08:21;101080.28;;;6.20;80.14
63946;BME280;50122;56.330;43.838;2023-06-22T01:11:10;101081.16;;;6.20;80.06
63946;BME280;50122;56.330;43.838;2023-06-22T01:16:31;101088.13;;;6.21;79.90
63946;BME280;50122;56.330;43.838;2023-06-22T01:19:01;101082.91;;;6.20;79.67
63946;BME280;50122;56.330;43.838;2023-06-22T01:21:33;101082.94;;;6.18;79.86
63946;BME280;50122;56.330;43.838;2023-06-22T01:24:22;101083.78;;;6.20;79.92
63946;BME280;50122;56.330;43.838;2023-06-22T01:27:13;101077.66;;;6.20;79.91
63946;BME280;50122;56.330;43.838;2023-06-22T01:29:55;101080.22;;;6.24;80.08
63946;BME280;50122;56.330;43.838;2023-06-22T01:32:30;101074.94;;;6.28;80.21
63946;BME280;50122;56.330;43.838;2023-06-22T01:35:01;101073.94;;;6.35;80.55
63946;BME280;50122;56.330;43.838;2023-06-22T01:37:32;101077.38;;;6.41;80.54
63946;BME280;50122;56.330;43.838;2023-06-22T01:40:02;101077.22;;;6.51;80.32
63946;BME280;50122;56.330;43.838;2023-06-22T01:42:31;101074.53;;;6.55;80.08
63946;BME280;50122;56.330;43.838;2023-06-22T01:44:59;101076.25;;;6.58;79.79
63946;BME280;50122;56.330;43.838;2023-06-22T01:47:26;101080.53;;;6.64;79.63
63946;BME280;50122;56.330;43.838;2023-06-22T01:49:54;101079.66;;;6.66;79.98
63946;BME280;50122;56.330;43.838;2023-06-22T01:52:23;101080.41;;;6.71;79.89
63946;BME280;50122;56.330;43.838;2023-06-22T01:54:50;101094.31;;;6.80;79.69
63946;BME280;50122;56.330;43.838;2023-06-22T01:57:17;101089.91;;;6.83;79.69
63946;BME280;50122;56.330;43.838;2023-06-22T01:59:50;101101.22;;;6.87;79.75
63946;BME280;50122;56.330;43.838;2023-06-22T02:02:20;101101.19;;;6.88;79.75
63946;BME280;50122;56.330;43.838;2023-06-22T02:04:59;101103.84;;;6.87;80.07
63946;BME280;50122;56.330;43.838;2023-06-22T02:07:33;101093.25;;;6.91;80.19
63946;BME280;50122;56.330;43.838;2023-06-22T02:10:02;101090.50;;;7.01;80.26
63946;BME280;50122;56.330;43.838;2023-06-22T02:12:30;101091.22;;;7.09;79.92
63946;BME280;50122;56.330;43.838;2023-06-22T02:14:59;101099.81;;;7.19;80.03
63946;BME280;50122;56.330;43.838;2023-06-22T02:17:28;101097.03;;;7.29;80.04
63946;BME280;50122;56.330;43.838;2023-06-22T02:19:56;101095.03;;;7.42;79.51
63946;BME280;50122;56.330;43.838;2023-06-22T02:22:23;101098.47;;;7.46;79.83
63946;BME280;50122;56.330;43.838;2023-06-22T02:24:51;101099.28;;;7.50;78.98
63946;BME280;50122;56.330;43.838;2023-06-22T02:27:17;101091.31;;;7.56;79.58
63946;BME280;50122;56.330;43.838;2023-06-22T02:29:44;101100.78;;;7.64;79.52
63946;BME280;50122;56.330;43.838;2023-06-22T02:32:11;101088.31;;;7.76;78.82
63946;BME280;50122;56.330;43.838;2023-06-22T02:34:38;101083.66;;;7.89;79.19
63946;BME280;50122;56.330;43.838;2023-06-22T02:37:04;101080.75;;;8.01;78.87
63946;BME280;50122;56.330;43.838;2023-06-22T02:39:31;101072.69;;;8.10;78.86
63946;BME280;50122;56.330;43.838;2023-06-22T02:41:58;101075.13;;;8.20;78.74
63946;BME280;50122;56.330;43.838;2023-06-22T02:44:25;101074.97;;;8.26;78.28
63946;BME280;50122;56.330;43.838;2023-06-22T02:46:51;101078.28;;;8.35;78.02
63946;BME280;50122;56.330;43.838;2023-06-22T02:49:19;101085.16;;;8.44;78.28
63946;BME280;50122;56.330;43.838;2023-06-22T02:51:46;101081.47;;;8.51;78.00
63946;BME280;50122;56.330;43.838;2023-06-22T02:54:13;101083.91;;;8.61;78.11
63946;BME280;50122;56.330;43.838;2023-06-22T02:56:40;101083.75;;;8.68;77.80
63946;BME280;50122;56.330;43.838;2023-06-22T02:59:14;101079.16;;;8.77;77.70
63946;BME280;50122;56.330;43.838;2023-06-22T03:01:43;101075.44;;;8.85;77.53
63946;BME280;50122;56.330;43.838;2023-06-22T03:04:09;101072.53;;;8.96;77.06
63946;BME280;50122;56.330;43.838;2023-06-22T03:06:36;101082.84;;;9.06;76.95
63946;BME280;50122;56.330;43.838;2023-06-22T03:09:04;101081.78;;;9.14;76.63
63946;BME280;50122;56.330;43.838;2023-06-22T03:11:32;101082.34;;;9.26;76.55
63946;BME280;50122;56.330;43.838;2023-06-22T03:14:00;101079.47;;;9.35;75.88
63946;BME280;50122;56.330;43.838;2023-06-22T03:16:28;101081.00;;;9.44;75.69
63946;BME280;50122;56.330;43.838;2023-06-22T03:18:55;101087.91;;;9.49;75.47
63946;BME280;50122;56.330;43.838;2023-06-22T03:21:23;101095.59;;;9.57;75.08
63946;BME280;50122;56.330;43.838;2023-06-22T03:23:50;101090.94;;;9.67;74.77
63946;BME280;50122;56.330;43.838;2023-06-22T03:26:18;101097.66;;;9.79;74.27
63946;BME280;50122;56.330;43.838;2023-06-22T03:29:00;101089.56;;;9.85;74.39
63946;BME280;50122;56.330;43.838;2023-06-22T03:31:27;101097.97;;;9.99;74.09
63946;BME280;50122;56.330;43.838;2023-06-22T03:33:54;101098.56;;;10.09;73.87
63946;BME280;50122;56.330;43.838;2023-06-22T03:36:21;101097.28;;;10.22;73.55
63946;BME280;50122;56.330;43.838;2023-06-22T03:38:55;101100.50;;;10.34;73.32
63946;BME280;50122;56.330;43.838;2023-06-22T03:41:22;101106.25;;;10.48;72.25
63946;BME280;50122;56.330;43.838;2023-06-22T03:43:49;101101.50;;;10.59;71.86
63946;BME280;50122;56.330;43.838;2023-06-22T03:46:16;101095.91;;;10.69;71.53
63946;BME280;50122;56.330;43.838;2023-06-22T03:48:47;101095.69;;;10.76;70.76
63946;BME280;50122;56.330;43.838;2023-06-22T03:51:14;101097.34;;;10.81;70.23
63946;BME280;50122;56.330;43.838;2023-06-22T03:53:41;101104.22;;;10.86;69.86
63946;BME280;50122;56.330;43.838;2023-06-22T03:56:10;101096.03;;;10.94;69.43
63946;BME280;50122;56.330;43.838;2023-06-22T03:58:37;101097.41;;;11.06;68.66
63946;BME280;50122;56.330;43.838;2023-06-22T04:01:10;101091.59;;;11.21;68.11
63946;BME280;50122;56.330;43.838;2023-06-22T04:03:38;101090.97;;;11.40;66.85
63946;BME280;50122;56.330;43.838;2023-06-22T04:06:05;101094.75;;;11.58;66.85
63946;BME280;50122;56.330;43.838;2023-06-22T04:08:38;101091.41;;;11.78;65.99
63946;BME280;50122;56.330;43.838;2023-06-22T04:11:04;101082.97;;;11.92;64.55
63946;BME280;50122;56.330;43.838;2023-06-22T04:13:31;101090.34;;;12.07;64.66
63946;BME280;50122;56.330;43.838;2023-06-22T04:15:58;101085.66;;;12.15;64.04
63946;BME280;50122;56.330;43.838;2023-06-22T04:18:25;101089.50;;;12.30;64.35
63946;BME280;50122;56.330;43.838;2023-06-22T04:20:51;101095.03;;;12.48;63.09
63946;BME280;50122;56.330;43.838;2023-06-22T04:23:19;101084.69;;;12.64;62.21
63946;BME280;50122;56.330;43.838;2023-06-22T04:25:45;101088.31;;;12.83;61.80
63946;BME280;50122;56.330;43.838;2023-06-22T04:28:12;101091.66;;;12.89;61.66
63946;BME280;50122;56.330;43.838;2023-06-22T04:30:39;101090.59;;;12.93;61.46
63946;BME280;50122;56.330;43.838;2023-06-22T04:33:16;101089.59;;;12.95;61.10
63946;BME280;50122;56.330;43.838;2023-06-22T04:35:46;101091.00;;;13.04;61.35
63946;BME280;50122;56.330;43.838;2023-06-22T04:38:13;101089.75;;;13.13;61.16
63946;BME280;50122;56.330;43.838;2023-06-22T04:40:40;101091.00;;;13.26;60.29
63946;BME280;50122;56.330;43.838;2023-06-22T04:43:07;101086.97;;;13.38;60.31
63946;BME280;50122;56.330;43.838;2023-06-22T04:45:33;101090.41;;;13.40;59.99
63946;BME280;50122;56.330;43.838;2023-06-22T04:48:01;101089.28;;;13.46;58.83
63946;BME280;50122;56.330;43.838;2023-06-22T18:20:39;100838.75;;;12.88;58.21
63946;BME280;50122;56.330;43.838;2023-06-22T18:23:09;100829.22;;;12.84;59.17
63946;BME280;50122;56.330;43.838;2023-06-22T18:25:36;100829.28;;;12.82;59.46
63946;BME280;50122;56.330;43.838;2023-06-22T18:28:08;100823.13;;;12.82;60.16
63946;BME280;50122;56.330;43.838;2023-06-22T18:30:36;100826.63;;;12.82;60.54
63946;BME280;50122;56.330;43.838;2023-06-22T18:33:03;100825.84;;;12.80;60.73
63946;BME280;50122;56.330;43.838;2023-06-22T18:35:30;100824.09;;;12.79;61.43
63946;BME280;50122;56.330;43.838;2023-06-22T18:37:57;100820.69;;;12.77;61.74
63946;BME280;50122;56.330;43.838;2023-06-22T18:40:25;100820.88;;;12.73;62.60
63946;BME280;50122;56.330;43.838;2023-06-22T18:42:59;100817.50;;;12.69;62.31
63946;BME280;50122;56.330;43.838;2023-06-22T18:45:28;100812.41;;;12.64;62.44
63946;BME280;50122;56.330;43.838;2023-06-22T18:53:18;100816.97;;;12.61;63.09
63946;BME280;50122;56.330;43.838;2023-06-22T18:55:51;100816.97;;;12.61;63.30
63946;BME280;50122;56.330;43.838;2023-06-22T18:58:23;100818.91;;;12.57;63.13
63946;BME280;50122;56.330;43.838;2023-06-22T19:00:53;100815.47;;;12.55;63.53
63946;BME280;50122;56.330;43.838;2023-06-22T19:03:41;100816.47;;;12.53;63.99
63946;BME280;50122;56.330;43.838;2023-06-22T19:06:08;100815.66;;;12.50;64.46
63946;BME280;50122;56.330;43.838;2023-06-22T19:09:12;100816.47;;;12.53;64.69
63946;BME280;50122;56.330;43.838;2023-06-22T19:11:39;100814.88;;;12.48;64.93
63946;BME280;50122;56.330;43.838;2023-06-22T19:14:17;100810.63;;;12.44;64.92
63946;BME280;50122;56.330;43.838;2023-06-22T19:17:24;100814.53;;;12.36;65.11
63946;BME280;50122;56.330;43.838;2023-06-22T19:20:18;100815.59;;;12.31;65.30
63946;BME280;50122;56.330;43.838;2023-06-22T19:22:56;100816.69;;;12.26;65.75
63946;BME280;50122;56.330;43.838;2023-06-22T19:25:28;100813.41;;;12.21;66.26
63946;BME280;50122;56.330;43.838;2023-06-22T19:28:01;100811.81;;;12.16;66.15
63946;BME280;50122;56.330;43.838;2023-06-22T19:30:30;100811.13;;;12.11;66.41
63946;BME280;50122;56.330;43.838;2023-06-22T19:33:00;100807.94;;;12.03;66.42
63946;BME280;50122;56.330;43.838;2023-06-22T19:35:32;100807.34;;;11.96;66.84
63946;BME280;50122;56.330;43.838;2023-06-22T19:38:19;100805.75;;;11.91;67.33
63946;BME280;50122;56.330;43.838;2023-06-22T19:40:46;100795.44;;;11.85;67.54
63946;BME280;50122;56.330;43.838;2023-06-22T19:43:13;100800.84;;;11.81;67.89
63946;BME280;50122;56.330;43.838;2023-06-22T19:45:42;100800.22;;;11.75;68.10
63946;BME280;50122;56.330;43.838;2023-06-22T19:48:14;100803.00;;;11.72;68.59
63946;BME280;50122;56.330;43.838;2023-06-22T19:50:41;100804.00;;;11.69;68.55
63946;BME280;50122;56.330;43.838;2023-06-22T19:53:15;100809.47;;;11.64;68.91
63946;BME280;50122;56.330;43.838;2023-06-22T19:55:44;100801.66;;;11.61;69.09
63946;BME280;50122;56.330;43.838;2023-06-22T19:58:18;100808.78;;;11.59;69.44
63946;BME280;50122;56.330;43.838;2023-06-22T20:00:46;100805.41;;;11.56;69.37
63946;BME280;50122;56.330;43.838;2023-06-22T20:03:27;100799.34;;;11.52;69.68
63946;BME280;50122;56.330;43.838;2023-06-22T20:05:55;100803.03;;;11.48;69.74
63946;BME280;50122;56.330;43.838;2023-06-22T20:08:50;100798.91;;;11.41;69.69
63946;BME280;50122;56.330;43.838;2023-06-22T20:11:24;100804.47;;;11.35;69.72
63946;BME280;50122;56.330;43.838;2023-06-22T20:13:52;100790.59;;;11.28;69.44
63946;BME280;50122;56.330;43.838;2023-06-22T20:16:21;100798.78;;;11.22;69.89
63946;BME280;50122;56.330;43.838;2023-06-22T20:19:08;100794.56;;;11.16;70.04
63946;BME280;50122;56.330;43.838;2023-06-22T20:21:40;100791.25;;;11.11;70.25
63946;BME280;50122;56.330;43.838;2023-06-22T20:24:09;100785.22;;;11.07;70.37
63946;BME280;50122;56.330;43.838;2023-06-22T20:26:43;100790.69;;;11.03;70.62
63946;BME280;50122;56.330;43.838;2023-06-22T20:29:29;100787.34;;;10.98;70.76
63946;BME280;50122;56.330;43.838;2023-06-22T20:32:10;100786.72;;;10.91;71.19
63946;BME280;50122;56.330;43.838;2023-06-22T20:34:39;100795.56;;;10.90;71.06
63946;BME280;50122;56.330;43.838;2023-06-22T20:37:08;100798.38;;;10.85;71.36
63946;BME280;50122;56.330;43.838;2023-06-22T20:39:34;100801.16;;;10.82;71.54
63946;BME280;50122;56.330;43.838;2023-06-22T20:42:02;100800.44;;;10.77;71.84
63946;BME280;50122;56.330;43.838;2023-06-22T20:44:33;100800.56;;;10.74;71.86
63946;BME280;50122;56.330;43.838;2023-06-22T20:47:01;100800.59;;;10.72;72.34
63946;BME280;50122;56.330;43.838;2023-06-22T20:49:30;100802.47;;;10.69;72.71
63946;BME280;50122;56.330;43.838;2023-06-22T20:51:57;100799.94;;;10.66;72.64
63946;BME280;50122;56.330;43.838;2023-06-22T20:54:23;100795.81;;;10.58;72.48
63946;BME280;50122;56.330;43.838;2023-06-22T20:56:51;100802.16;;;10.54;72.50
63946;BME280;50122;56.330;43.838;2023-06-22T20:59:18;100800.63;;;10.47;72.75
63946;BME280;50122;56.330;43.838;2023-06-22T21:01:45;100801.72;;;10.41;72.77
63946;BME280;50122;56.330;43.838;2023-06-22T21:04:13;100795.66;;;10.38;73.01
63946;BME280;50122;56.330;43.838;2023-06-22T21:06:40;100801.97;;;10.34;73.42
63946;BME280;50122;56.330;43.838;2023-06-22T21:09:07;100799.34;;;10.32;73.48
63946;BME280;50122;56.330;43.838;2023-06-22T21:11:34;100803.88;;;10.29;73.83
63946;BME280;50122;56.330;43.838;2023-06-22T21:14:01;100805.63;;;10.28;73.86
63946;BME280;50122;56.330;43.838;2023-06-22T21:16:44;100803.09;;;10.25;74.03
63946;BME280;50122;56.330;43.838;2023-06-22T21:19:11;100798.91;;;10.19;73.85
63946;BME280;50122;56.330;43.838;2023-06-22T21:21:39;100805.31;;;10.12;74.15
63946;BME280;50122;56.330;43.838;2023-06-22T21:24:06;100800.22;;;10.06;74.23
63946;BME280;50122;56.330;43.838;2023-06-22T21:26:33;100804.84;;;9.99;74.38
63946;BME280;50122;56.330;43.838;2023-06-22T21:29:00;100806.78;;;9.94;74.54
63946;BME280;50122;56.330;43.838;2023-06-22T21:31:26;100800.78;;;9.89;74.54
63946;BME280;50122;56.330;43.838;2023-06-22T21:33:53;100795.75;;;9.81;74.62
63946;BME280;50122;56.330;43.838;2023-06-22T21:36:20;100803.69;;;9.81;74.79
63946;BME280;50122;56.330;43.838;2023-06-22T21:38:51;100797.56;;;9.79;74.88
63946;BME280;50122;56.330;43.838;2023-06-22T21:41:19;100791.59;;;9.74;75.26
63946;BME280;50122;56.330;43.838;2023-06-22T21:43:47;100786.47;;;9.69;75.52
63946;BME280;50122;56.330;43.838;2023-06-22T21:46:14;100785.69;;;9.66;75.48
63946;BME280;50122;56.330;43.838;2023-06-22T21:48:42;100794.63;;;9.62;75.94
63946;BME280;50122;56.330;43.838;2023-06-22T21:51:10;100788.59;;;9.58;75.96
63946;BME280;50122;56.330;43.838;2023-06-22T21:53:37;100787.91;;;9.51;75.98
63946;BME280;50122;56.330;43.838;2023-06-22T21:56:05;100789.84;;;9.46;75.78
63946;BME280;50122;56.330;43.838;2023-06-22T21:58:33;100790.88;;;9.41;75.90
63946;BME280;50122;56.330;43.838;2023-06-22T22:01:00;100793.69;;;9.36;76.21
63946;BME280;50122;56.330;43.838;2023-06-22T22:03:27;100779.69;;;9.32;76.63
63946;BME280;50122;56.330;43.838;2023-06-22T22:05:55;100788.50;;;9.31;76.77
63946;BME280;50122;56.330;43.838;2023-06-22T22:08:22;100786.06;;;9.25;76.95
63946;BME280;50122;56.330;43.838;2023-06-22T22:10:49;100789.72;;;9.21;76.90
63946;BME280;50122;56.330;43.838;2023-06-22T22:13:16;100782.84;;;9.15;77.22
63946;BME280;50122;56.330;43.838;2023-06-22T22:15:45;100783.88;;;9.10;77.48
63946;BME280;50122;56.330;43.838;2023-06-22T22:18:15;100780.44;;;9.08;77.80
63946;BME280;50122;56.330;43.838;2023-06-22T22:20:42;100782.25;;;9.06;77.61
63946;BME280;50122;56.330;43.838;2023-06-22T22:23:09;100778.81;;;9.03;77.50
63946;BME280;50122;56.330;43.838;2023-06-22T22:25:36;100775.38;;;9.01;77.90
63946;BME280;50122;56.330;43.838;2023-06-22T22:28:02;100770.13;;;9.00;77.89
63946;BME280;50122;56.330;43.838;2023-06-22T22:30:29;100771.19;;;8.94;77.74
63946;BME280;50122;56.330;43.838;2023-06-22T22:32:56;100771.34;;;8.88;77.26
63946;BME280;50122;56.330;43.838;2023-06-22T22:35:22;100778.41;;;8.88;77.71
63946;BME280;50122;56.330;43.838;2023-06-22T22:37:49;100772.38;;;8.84;77.64
63946;BME280;50122;56.330;43.838;2023-06-22T22:40:16;100765.44;;;8.80;77.84
63946;BME280;50122;56.330;43.838;2023-06-22T22:42:42;100768.97;;;8.79;78.10
63946;BME280;50122;56.330;43.838;2023-06-22T22:45:09;100768.19;;;8.77;78.48
63946;BME280;50122;56.330;43.838;2023-06-22T22:47:37;100769.97;;;8.75;78.44
63946;BME280;50122;56.330;43.838;2023-06-22T22:50:04;100765.78;;;8.67;78.13
63946;BME280;50122;56.330;43.838;2023-06-22T22:52:30;100764.09;;;8.65;78.52
63946;BME280;50122;56.330;43.838;2023-06-22T22:54:57;100766.72;;;8.65;79.18
63946;BME280;50122;56.330;43.838;2023-06-22T22:57:24;100764.09;;;8.65;79.01
63946;BME280;50122;56.330;43.838;2023-06-22T22:59:50;100771.28;;;8.60;78.83
63946;BME280;50122;56.330;43.838;2023-06-22T23:02:17;100774.00;;;8.57;78.69
63946;BME280;50122;56.330;43.838;2023-06-22T23:04:44;100775.88;;;8.51;79.05
63946;BME280;50122;56.330;43.838;2023-06-22T23:07:10;100764.66;;;8.43;78.75
63946;BME280;50122;56.330;43.838;2023-06-22T23:09:37;100763.88;;;8.40;79.71
63946;BME280;50122;56.330;43.838;2023-06-22T23:12:04;100771.91;;;8.35;79.10
63946;BME280;50122;56.330;43.838;2023-06-22T23:14:31;100770.22;;;8.32;79.52
63946;BME280;50122;56.330;43.838;2023-06-22T23:16:59;100768.56;;;8.28;79.66
63946;BME280;50122;56.330;43.838;2023-06-22T23:19:26;100766.06;;;8.24;79.62
63946;BME280;50122;56.330;43.838;2023-06-22T23:21:53;100763.53;;;8.21;79.67
63946;BME280;50122;56.330;43.838;2023-06-22T23:24:20;100759.19;;;8.18;80.25
63946;BME280;50122;56.330;43.838;2023-06-22T23:26:47;100758.34;;;8.16;79.98
63946;BME280;50122;56.330;43.838;2023-06-22T23:29:17;100757.50;;;8.15;79.99
63946;BME280;50122;56.330;43.838;2023-06-22T23:31:44;100762.94;;;8.09;80.01
63946;BME280;50122;56.330;43.838;2023-06-22T23:34:11;100763.97;;;8.04;80.05
63946;BME280;50122;56.330;43.838;2023-06-22T23:36:38;100762.34;;;7.98;80.29
63946;BME280;50122;56.330;43.838;2023-06-22T23:39:05;100755.38;;;7.95;79.90
63946;BME280;50122;56.330;43.838;2023-06-22T23:41:33;100750.19;;;7.92;80.36
63946;BME280;50122;56.330;43.838;2023-06-22T23:44:00;100751.06;;;7.93;80.80
63946;BME280;50122;56.330;43.838;2023-06-22T23:46:27;100752.84;;;7.92;81.05
63946;BME280;50122;56.330;43.838;2023-06-22T23:48:57;100757.31;;;7.89;80.61
63946;BME280;50122;56.330;43.838;2023-06-22T23:51:24;100742.47;;;7.86;80.60
63946;BME280;50122;56.330;43.838;2023-06-22T23:53:55;100757.41;;;7.84;80.80
63946;BME280;50122;56.330;43.838;2023-06-22T23:56:23;100754.00;;;7.80;81.04
63946;BME280;50122;56.330;43.838;2023-06-22T23:58:50;100754.16;;;7.74;80.39
